Terminal Aerodrome Forecast
Issued by NWS

Home | Current Version | Previous Version | Text Only | Print | Product List | Glossary On
Versions: 1 2 3 4 5 6 7 8 9 10 11 12 13 14 15 16 17 18 19 20 21 22 23 24 25 26 27
000
FTUS42 KFFC 210900 AAA
TAFFTY
TAF AMD
KFTY 210938Z 2110/2206 00000KT P6SM SCT150
     FM211100 00000KT 4SM BR SCT008
     FM211400 30004KT P6SM SCT025
     FM211700 30006KT P6SM SCT045
     FM220200 31002KT P6SM SKC=

USA.gov is the U.S. government's official web portal to all federal, state and local government web resources and services.